メインページ
METAR-TAF:

METAR-TAF

空港 :

Omak Airport

Omak, ワシントン, アメリカ合衆国

緯度: 48-27-51N, 経度: 119-31-05W, 海抜: 397m

現時点の気象観測

当レポートは45分前の02:53(UTC)に作成
西/北西の風 7kt
気温 14°C
湿度 51%
気圧 1022 hPa
視程: 16.1km
晴天

METAR: KOMK 250253Z AUTO 30007KT 10SM CLR 14/04 A3019 RMK AO2 SLP227 T01390044 53010 $

時間: 20:38 (03:38 UTC)


TAF: 見つかりません

4,000以上の空港の気象観測と天気予報(METAR報とTAF報)

利用可能な観測所は地図上に黄色い丸と赤い丸で示す。

丸の上にカーソルを重ねると観測所名を参照できる。

次にクリックすると気象観測と天気予報を参照できる。

マップの切り替え:黒色「×」印の緑ボタンをクリックして拡大、「-」印の緑ボタンをクリックして縮小、緑色の三角印をクリックして隣りの地図に切り替え


METAR-TAF: